createdAt,value
2023-05-10T00:00:57.779Z,46.5
2023-05-10T00:01:58.032Z,46.3571
2023-05-10T00:02:59.624Z,46.2143
2023-05-10T00:04:00.067Z,46.6429
2023-05-10T00:05:00.568Z,47
2023-05-10T00:06:01.765Z,47
2023-05-10T00:07:02.521Z,46.6429
2023-05-10T00:08:03.571Z,46.7857
2023-05-10T00:09:04.596Z,46.7857
2023-05-10T00:10:04.356Z,46.9286
2023-05-10T00:11:05.292Z,47
2023-05-10T00:12:05.319Z,46.9286
2023-05-10T00:13:07.000Z,46.7143
2023-05-10T00:14:07.385Z,47
2023-05-10T00:15:07.842Z,47
2023-05-10T00:16:08.123Z,47.0714
2023-05-10T00:17:09.616Z,47.2143
2023-05-10T00:18:09.839Z,47.0714
2023-05-10T00:19:11.327Z,47.0714
2023-05-10T00:20:11.725Z,47.1429
2023-05-10T00:21:12.071Z,47.2857
2023-05-10T00:22:12.469Z,47
2023-05-10T00:23:13.156Z,46.9286
2023-05-10T00:24:13.667Z,46.9286
2023-05-10T00:25:14.390Z,47.2143
2023-05-10T00:26:15.475Z,47.2143
2023-05-10T00:27:15.771Z,47.2857
2023-05-10T00:28:16.631Z,47.3571
2023-05-10T00:29:17.446Z,47.2857
2023-05-10T00:30:19.281Z,47.1429
2023-05-10T00:31:18.902Z,47.2857
2023-05-10T00:32:19.836Z,47.1429
2023-05-10T00:33:20.559Z,47.1429
2023-05-10T00:34:20.679Z,47.3571
2023-05-10T00:35:22.372Z,47.3571
2023-05-10T00:36:22.472Z,47.5
2023-05-10T00:37:24.489Z,47.3571
2023-05-10T00:38:24.134Z,47.1429
2023-05-10T00:39:26.626Z,47.2143
2023-05-10T00:40:27.739Z,47.1429
2023-05-10T00:41:29.035Z,47.0714
2023-05-10T00:42:30.708Z,47.4286
2023-05-10T00:43:31.201Z,47.2143
2023-05-10T00:44:32.195Z,47.0714
2023-05-10T00:45:33.128Z,47.3571
2023-05-10T00:46:34.620Z,47.4286
2023-05-10T00:47:35.111Z,47.2857
2023-05-10T00:48:35.149Z,47.5
2023-05-10T00:49:36.340Z,47.2143
2023-05-10T00:50:37.511Z,47.2143
2023-05-10T00:51:37.813Z,47.2857
2023-05-10T00:52:39.377Z,47.2143
2023-05-10T00:53:40.083Z,47.1429
2023-05-10T00:54:41.237Z,47.2857
2023-05-10T00:55:42.277Z,47.4286
2023-05-10T00:56:42.404Z,47.2857
2023-05-10T00:57:43.045Z,47.2857
2023-05-10T00:58:42.847Z,47.2857
2023-05-10T00:59:44.111Z,47.4286
2023-05-10T01:00:43.873Z,47.3571
2023-05-10T01:01:45.212Z,47.3571
2023-05-10T01:02:45.606Z,47.5
2023-05-10T01:03:47.810Z,47.4286
2023-05-10T01:04:47.166Z,47.2143
2023-05-10T01:05:50.191Z,47.1429
2023-05-10T01:06:50.303Z,47.2143
2023-05-10T01:07:51.877Z,47.2143
2023-05-10T01:08:52.399Z,47.2143
2023-05-10T01:09:53.280Z,47.2857
2023-05-10T01:10:52.789Z,47.1429
2023-05-10T01:11:54.686Z,47.2857
2023-05-10T01:12:55.111Z,47.2857
2023-05-10T01:13:55.534Z,47.2857
2023-05-10T01:14:55.872Z,47.3571
2023-05-10T01:15:55.851Z,47.2857
2023-05-10T01:16:57.440Z,47.4286
2023-05-10T01:17:58.820Z,47.4286
2023-05-10T01:19:00.460Z,47.4286
2023-05-10T01:20:00.644Z,47.2857
2023-05-10T01:21:02.454Z,47.2857
2023-05-10T01:22:02.808Z,47.3571
2023-05-10T01:23:03.033Z,47.1429
2023-05-10T01:24:04.622Z,47.7143
2023-05-10T01:25:06.301Z,48
2023-05-10T01:26:06.459Z,47.5
2023-05-10T01:27:07.854Z,47.5714
2023-05-10T01:28:08.893Z,47.5
2023-05-10T01:29:10.567Z,47.5714
2023-05-10T01:30:15.818Z,47.6429
2023-05-10T01:31:12.484Z,47.7143
2023-05-10T01:32:12.867Z,47.5714
2023-05-10T01:33:13.021Z,47.5
2023-05-10T01:34:14.838Z,47.8571
2023-05-10T01:35:14.853Z,47.6429
2023-05-10T01:36:14.502Z,47.7857
2023-05-10T01:37:15.434Z,47.5
2023-05-10T01:38:16.263Z,47.5714
2023-05-10T01:39:16.365Z,47.6429
2023-05-10T01:40:18.364Z,47.4286
2023-05-10T01:41:19.389Z,47.5
2023-05-10T01:42:20.988Z,47.5
2023-05-10T01:43:21.511Z,47.4286
2023-05-10T01:44:21.428Z,47.6429
2023-05-10T01:45:22.882Z,47.5714
2023-05-10T01:46:24.728Z,47.6429
2023-05-10T01:47:25.977Z,47.7857
2023-05-10T01:48:27.695Z,47.8571
2023-05-10T01:49:28.954Z,47.7857
2023-05-10T01:50:29.054Z,47.5714
2023-05-10T01:51:30.868Z,47.6429
2023-05-10T01:52:32.518Z,47.8571
2023-05-10T01:53:34.415Z,47.7143
2023-05-10T01:54:36.060Z,47.7143
2023-05-10T01:55:37.226Z,47.7143
2023-05-10T01:56:37.105Z,47.6429
2023-05-10T01:57:38.276Z,47.3571
2023-05-10T01:58:38.844Z,47.6429
2023-05-10T01:59:41.296Z,47.7857
2023-05-10T02:00:41.974Z,47.7857
2023-05-10T02:01:43.115Z,47.7143
2023-05-10T02:02:45.650Z,47.8571
2023-05-10T02:03:46.537Z,47.7857
2023-05-10T02:04:47.770Z,47.7143
2023-05-10T02:05:49.126Z,48.0714
2023-05-10T02:06:50.429Z,47.9286
2023-05-10T02:07:50.399Z,48.0714
2023-05-10T02:08:51.504Z,48.1429
2023-05-10T02:09:52.186Z,47.9286
2023-05-10T02:10:54.402Z,48.3571
2023-05-10T02:11:56.148Z,48.2143
2023-05-10T02:12:57.247Z,48.2143
2023-05-10T02:13:58.282Z,48
2023-05-10T02:14:59.558Z,48.2143
2023-05-10T02:16:00.365Z,48.2143
2023-05-10T02:16:59.709Z,48.5
2023-05-10T02:18:01.564Z,48.7143
2023-05-10T02:19:03.211Z,48.6429
2023-05-10T02:20:04.882Z,48.6429
2023-05-10T02:21:06.547Z,48.6429
2023-05-10T02:22:06.728Z,48.7857
2023-05-10T02:23:06.890Z,48.5714
2023-05-10T02:24:07.693Z,48.9286
2023-05-10T02:25:07.918Z,48.7857
2023-05-10T02:26:07.868Z,48.9286
2023-05-10T02:27:08.237Z,48.8571
2023-05-10T02:28:08.772Z,49
2023-05-10T02:29:10.872Z,49.1429
2023-05-10T02:30:12.398Z,49
2023-05-10T02:31:12.510Z,49
2023-05-10T02:32:14.825Z,48.9286
2023-05-10T02:33:16.515Z,49
2023-05-10T02:34:17.842Z,49
2023-05-10T02:35:18.790Z,49
2023-05-10T02:36:19.491Z,49.2857
2023-05-10T02:37:21.782Z,49.2857
2023-05-10T02:38:22.634Z,49
2023-05-10T02:39:23.761Z,49.1429
2023-05-10T02:40:28.588Z,49.2857
2023-05-10T02:41:26.302Z,49.2857
2023-05-10T02:42:27.123Z,49.2857
2023-05-10T02:43:28.764Z,49.6429
2023-05-10T02:44:30.464Z,49.4286
2023-05-10T02:45:30.984Z,49.5714
2023-05-10T02:46:31.865Z,49.7143
2023-05-10T02:47:32.691Z,49.6429
2023-05-10T02:48:33.927Z,49.6429
2023-05-10T02:49:35.452Z,49.5714
2023-05-10T02:50:37.704Z,49.7857
2023-05-10T02:51:37.647Z,49.7857
2023-05-10T02:52:38.437Z,50.0714
2023-05-10T02:53:40.659Z,50.0714
2023-05-10T02:54:40.237Z,49.7143
2023-05-10T02:55:41.124Z,50
2023-05-10T02:56:41.732Z,50.2857
2023-05-10T02:57:42.964Z,50.5
2023-05-10T02:58:42.728Z,50.5714
2023-05-10T02:59:43.774Z,50.5
2023-05-10T03:00:43.638Z,50.5714
2023-05-10T03:01:45.640Z,50.3571
2023-05-10T03:02:46.723Z,50.7143
2023-05-10T03:03:47.280Z,51
2023-05-10T03:04:47.141Z,50.5
2023-05-10T03:05:47.081Z,51
2023-05-10T03:06:48.437Z,50.9286
2023-05-10T03:07:49.657Z,51.0714
2023-05-10T03:08:50.069Z,50.7143
2023-05-10T03:09:51.289Z,50.7857
2023-05-10T03:10:52.023Z,50.6429
2023-05-10T03:11:52.982Z,50.6429
2023-05-10T03:12:53.202Z,51.1429
2023-05-10T03:13:54.230Z,51.0714
2023-05-10T03:14:56.056Z,51.0714
2023-05-10T03:15:57.840Z,51.2143
2023-05-10T03:16:59.724Z,51.2143
2023-05-10T03:18:00.021Z,51.0714
2023-05-10T03:19:00.386Z,50.8571
2023-05-10T03:20:01.235Z,51.0714
2023-05-10T03:21:02.687Z,51.1429
2023-05-10T03:22:03.210Z,51.1429
2023-05-10T03:23:04.995Z,51
2023-05-10T03:24:05.431Z,51.1429
2023-05-10T03:25:06.934Z,51.3571
2023-05-10T03:26:07.771Z,51.5
2023-05-10T03:27:09.228Z,51.3571
2023-05-10T03:28:08.783Z,51.0714
2023-05-10T03:29:11.711Z,51.2857
2023-05-10T03:30:11.368Z,51.3571
2023-05-10T03:31:11.869Z,51.5714
2023-05-10T03:32:11.977Z,51.2857
2023-05-10T03:33:13.551Z,51.2857
2023-05-10T03:34:13.012Z,51.1429
2023-05-10T03:35:14.759Z,51.2857
2023-05-10T03:36:17.272Z,51.6429
2023-05-10T03:37:19.342Z,51.3571
2023-05-10T03:38:21.529Z,51.5
2023-05-10T03:39:23.348Z,51.7857
2023-05-10T03:40:22.877Z,51.5
2023-05-10T03:41:25.158Z,51.3571
2023-05-10T03:42:26.592Z,51.6429
2023-05-10T03:43:27.539Z,51.2857
2023-05-10T03:44:29.216Z,51.5
2023-05-10T03:45:30.863Z,51.5
2023-05-10T03:46:30.339Z,51.3571
2023-05-10T03:47:32.258Z,51.2857
2023-05-10T03:48:34.918Z,51.3571
2023-05-10T03:49:36.177Z,51.5714
2023-05-10T03:50:37.863Z,51.7857
2023-05-10T03:51:40.679Z,51.4286
2023-05-10T03:52:42.104Z,51.5
2023-05-10T03:53:43.911Z,51.6429
2023-05-10T03:54:45.337Z,51.4286
2023-05-10T03:55:46.265Z,51.2857
2023-05-10T03:56:47.555Z,51.1429
2023-05-10T03:57:48.857Z,51.2857
2023-05-10T03:58:49.894Z,51.5714
2023-05-10T03:59:52.189Z,51.5714
2023-05-10T04:00:53.482Z,51.5
2023-05-10T04:01:56.154Z,51.5
2023-05-10T04:02:58.068Z,51.4286
2023-05-10T04:03:59.320Z,51.2857
2023-05-10T04:04:59.291Z,51.3571
2023-05-10T04:06:01.220Z,51.2143
2023-05-10T04:07:02.883Z,51.3571
2023-05-10T04:08:05.335Z,51.0714
2023-05-10T04:09:06.399Z,51.3571
2023-05-10T04:10:09.185Z,51.4286
2023-05-10T04:11:10.671Z,51.7143
2023-05-10T04:12:12.599Z,51.5
2023-05-10T04:13:14.543Z,51.0714
2023-05-10T04:14:16.501Z,51.1429
2023-05-10T04:15:18.354Z,51.1429
2023-05-10T04:16:20.405Z,51.0714
2023-05-10T04:17:22.020Z,51.5
2023-05-10T04:18:22.852Z,51.1429
2023-05-10T04:19:25.349Z,51.1429
2023-05-10T04:20:26.852Z,51.2143
2023-05-10T04:21:28.222Z,51.0714
2023-05-10T04:22:30.593Z,51.0714
2023-05-10T04:23:32.732Z,51.0714
2023-05-10T04:24:34.065Z,51.0714
2023-05-10T04:25:34.769Z,51.0714
2023-05-10T04:26:35.850Z,51.5
2023-05-10T04:27:38.032Z,51.4286
2023-05-10T04:28:40.242Z,51.2143
2023-05-10T04:29:42.214Z,50.9286
2023-05-10T04:30:44.406Z,51.0714
2023-05-10T04:31:44.881Z,51.1429
2023-05-10T04:32:44.849Z,51
2023-05-10T04:33:47.263Z,51.1429
2023-05-10T04:34:49.126Z,51.0714
2023-05-10T04:35:50.731Z,50.9286
2023-05-10T04:36:51.771Z,50.7857
2023-05-10T04:37:54.432Z,51.0714
2023-05-10T04:38:55.987Z,51.1429
2023-05-10T04:39:57.140Z,50.8571
2023-05-10T04:40:58.900Z,50.9286
2023-05-10T04:42:01.588Z,51.1429
2023-05-10T04:43:02.492Z,50.7143
2023-05-10T04:44:05.282Z,50.7143
2023-05-10T04:45:06.519Z,50.5714
2023-05-10T04:46:07.813Z,50.5
2023-05-10T04:47:10.473Z,50.4286
2023-05-10T04:48:09.951Z,50.5
2023-05-10T04:49:11.408Z,50.3571
2023-05-10T04:50:12.736Z,50.7143
2023-05-10T04:51:13.325Z,50.4286
2023-05-10T04:52:14.888Z,50.5
2023-05-10T04:53:16.795Z,50.2143
2023-05-10T04:54:18.581Z,50.1429
2023-05-10T04:55:20.705Z,50.2143
2023-05-10T04:56:22.170Z,50.0714
2023-05-10T04:57:24.191Z,50.0714
2023-05-10T04:58:26.157Z,49.7143
2023-05-10T04:59:27.766Z,49.7857
2023-05-10T05:00:28.030Z,50.3571
2023-05-10T05:01:29.358Z,50.1429
2023-05-10T05:02:30.800Z,49.7143
2023-05-10T05:03:32.567Z,49.5
2023-05-10T05:04:34.565Z,49.6429
2023-05-10T05:05:36.470Z,49.6429
2023-05-10T05:06:38.297Z,49.8571
2023-05-10T05:07:40.240Z,49.5714
2023-05-10T05:08:42.064Z,49.5
2023-05-10T05:09:44.217Z,49.5
2023-05-10T05:10:46.292Z,49.3571
2023-05-10T05:11:46.536Z,49.1429
2023-05-10T05:12:47.833Z,48.9286
2023-05-10T05:13:49.198Z,49.2143
2023-05-10T05:14:50.346Z,49.1429
2023-05-10T05:15:53.305Z,49.2857
2023-05-10T05:16:54.975Z,49
2023-05-10T05:17:56.333Z,49.2143
2023-05-10T05:18:56.765Z,49.5714
2023-05-10T05:19:57.282Z,49.7143
2023-05-10T05:20:58.697Z,49.0714
2023-05-10T05:22:00.063Z,48.9286
2023-05-10T05:23:00.625Z,49
2023-05-10T05:24:01.150Z,49.0714
2023-05-10T05:25:01.762Z,48.8571
2023-05-10T05:26:03.971Z,48.7857
2023-05-10T05:27:04.660Z,49.0714
2023-05-10T05:28:06.597Z,49.2143
2023-05-10T05:29:06.937Z,48.5714
2023-05-10T05:30:08.040Z,48.9286
2023-05-10T05:31:08.394Z,48.5
2023-05-10T05:32:09.823Z,47.9286
2023-05-10T05:33:10.219Z,47.9286
2023-05-10T05:34:12.041Z,48.7143
2023-05-10T05:35:12.305Z,48.6429
2023-05-10T05:36:12.807Z,48.3571
2023-05-10T05:37:13.244Z,47.5
2023-05-10T05:38:15.324Z,47.5
2023-05-10T05:39:15.697Z,47.1429
2023-05-10T05:40:16.900Z,47.4286
2023-05-10T05:41:16.831Z,47.3571
2023-05-10T05:42:18.352Z,47.5714
2023-05-10T05:43:20.407Z,47.8571
2023-05-10T05:44:20.783Z,47.7143
2023-05-10T05:45:21.534Z,47.2143
2023-05-10T05:46:22.528Z,47.2143
2023-05-10T05:47:21.789Z,47.6429
2023-05-10T05:48:23.699Z,48
2023-05-10T05:49:24.182Z,47.5714
2023-05-10T05:50:24.455Z,47.0714
2023-05-10T05:51:24.571Z,47.5714
2023-05-10T05:52:25.677Z,46.9286
2023-05-10T05:53:26.695Z,46.7143
2023-05-10T05:54:25.965Z,46
2023-05-10T05:55:26.852Z,46.3571
2023-05-10T05:56:26.648Z,45.6429
2023-05-10T05:57:29.226Z,44.9286
2023-05-10T05:58:29.933Z,44.7857
2023-05-10T05:59:29.919Z,44.0714
2023-05-10T06:00:31.240Z,43.7857
2023-05-10T06:01:32.591Z,43.5
2023-05-10T06:02:33.152Z,43.3571
2023-05-10T06:03:34.510Z,43
2023-05-10T06:04:36.365Z,42.7143
2023-05-10T06:05:36.492Z,42.0714
2023-05-10T06:06:37.366Z,42.0714
2023-05-10T06:07:40.193Z,41.5714
2023-05-10T06:08:41.621Z,41.6429
2023-05-10T06:09:42.321Z,41.2857
2023-05-10T06:10:44.161Z,40.7143
2023-05-10T06:11:43.651Z,39.6429
2023-05-10T06:12:45.981Z,39.2143
2023-05-10T06:13:48.178Z,38
2023-05-10T06:14:49.823Z,37.1429
2023-05-10T06:15:50.106Z,36.1429
2023-05-10T06:16:51.753Z,35.7857
2023-05-10T06:17:51.631Z,34.8571
2023-05-10T06:18:54.578Z,34
2023-05-10T06:19:55.099Z,33.7143
2023-05-10T06:20:57.134Z,33.1429
2023-05-10T06:21:57.713Z,32.7857
2023-05-10T06:22:59.073Z,32
2023-05-10T06:24:01.664Z,32.2857
2023-05-10T06:25:02.543Z,31.2857
2023-05-10T06:26:05.381Z,30.7857
2023-05-10T06:27:06.086Z,30.6429
2023-05-10T06:28:08.258Z,30.3571
2023-05-10T06:29:08.626Z,30.5
2023-05-10T06:30:13.282Z,30.3571
2023-05-10T06:31:11.476Z,29.7857
2023-05-10T06:32:14.077Z,29.2143
2023-05-10T06:33:13.919Z,29.3571
2023-05-10T06:34:15.472Z,28.8571
2023-05-10T06:35:16.526Z,28.2857
2023-05-10T06:36:16.974Z,28.4286
2023-05-10T06:37:16.507Z,28.3571
2023-05-10T06:38:18.168Z,28.0714
2023-05-10T06:39:18.265Z,28
2023-05-10T06:40:19.108Z,27.6429
2023-05-10T06:41:19.298Z,27.1429
2023-05-10T06:42:20.861Z,27.1429
2023-05-10T06:43:21.702Z,27.0714
2023-05-10T06:44:22.621Z,27.5
2023-05-10T06:45:23.687Z,27.2143
2023-05-10T06:46:23.164Z,26.5714
2023-05-10T06:47:24.060Z,27
2023-05-10T06:48:25.580Z,26.5
2023-05-10T06:49:25.681Z,26.1429
2023-05-10T06:50:28.413Z,26.0714
2023-05-10T06:51:28.786Z,26.0714
2023-05-10T06:52:31.431Z,26.1429
2023-05-10T06:53:31.092Z,25.9286
2023-05-10T06:54:33.698Z,26.0714
2023-05-10T06:55:33.922Z,25.9286
2023-05-10T06:56:35.608Z,25.5
2023-05-10T06:57:36.219Z,25.4286
2023-05-10T06:58:35.912Z,25.1429
2023-05-10T06:59:36.856Z,24.0714
2023-05-10T07:00:36.907Z,24.2857
2023-05-10T07:01:38.794Z,24.7143
2023-05-10T07:02:39.054Z,24.5
2023-05-10T07:03:41.386Z,24.5714
2023-05-10T07:04:41.583Z,24.2857
2023-05-10T07:05:42.598Z,24.5714
2023-05-10T07:06:43.404Z,24.0714
2023-05-10T07:07:44.215Z,24.2143
2023-05-10T07:08:45.515Z,24.4286
2023-05-10T07:09:47.044Z,24.2143
2023-05-10T07:10:48.516Z,24.3571
2023-05-10T07:11:48.294Z,24.6429
2023-05-10T07:12:50.402Z,23.9286
2023-05-10T07:13:50.915Z,23.5714
2023-05-10T07:14:51.943Z,23.2857
2023-05-10T07:15:53.356Z,23.5714
2023-05-10T07:16:54.517Z,24
2023-05-10T07:17:56.027Z,23.7857
2023-05-10T07:18:56.318Z,23.6429
2023-05-10T07:19:59.029Z,23.0714
2023-05-10T07:20:58.529Z,23.4286
2023-05-10T07:22:00.515Z,23.2143
2023-05-10T07:23:02.228Z,22.8571
2023-05-10T07:24:03.096Z,23.2143
2023-05-10T07:25:03.920Z,22.6429
2023-05-10T07:26:03.904Z,22.5714
2023-05-10T07:27:06.130Z,22.1429
2023-05-10T07:28:06.143Z,22.1429
2023-05-10T07:29:06.795Z,22.7143
2023-05-10T07:30:08.920Z,22.9286
2023-05-10T07:31:09.676Z,22.6429
2023-05-10T07:32:10.648Z,22.1429
2023-05-10T07:33:10.702Z,21.6429
2023-05-10T07:34:10.959Z,22.0714
2023-05-10T07:35:12.180Z,22.3571
2023-05-10T07:36:14.684Z,22.4286
2023-05-10T07:37:14.813Z,22
2023-05-10T07:38:15.585Z,21.5714
2023-05-10T07:39:24.417Z,21.5714
2023-05-10T07:40:16.317Z,21.6429
2023-05-10T07:41:18.360Z,21.4286
2023-05-10T07:42:20.126Z,21.5714
2023-05-10T07:43:21.297Z,22
2023-05-10T07:44:23.425Z,22.2143
2023-05-10T07:45:23.939Z,21.8571
2023-05-10T07:46:25.911Z,21.5714
2023-05-10T07:47:27.919Z,21.0714
2023-05-10T07:48:28.250Z,21.0714
2023-05-10T07:49:30.078Z,21.1429
2023-05-10T07:50:30.811Z,21.2857
2023-05-10T07:51:31.102Z,20.6429
2023-05-10T07:52:32.063Z,20.6429
2023-05-10T07:53:33.081Z,20.7143
2023-05-10T07:54:34.613Z,21
2023-05-10T07:55:35.083Z,21.7857
2023-05-10T07:56:36.218Z,21.5714
2023-05-10T07:57:37.484Z,22.2143
2023-05-10T07:58:39.007Z,22.5
2023-05-10T07:59:39.740Z,23.2857
2023-05-10T08:00:41.718Z,23.7143
2023-05-10T08:01:43.062Z,23.2857
2023-05-10T08:02:43.293Z,24.5714
2023-05-10T08:03:45.663Z,24.8571
2023-05-10T08:04:46.701Z,25.2857
2023-05-10T08:05:46.635Z,26
2023-05-10T08:06:48.586Z,27.0714
2023-05-10T08:07:50.656Z,26.9286
2023-05-10T08:08:50.840Z,26.9286
2023-05-10T08:09:52.521Z,26.3571
2023-05-10T08:10:55.237Z,26.3571
2023-05-10T08:11:55.029Z,26.7143
2023-05-10T08:12:55.233Z,26.5
2023-05-10T08:13:55.472Z,25.7857
2023-05-10T08:14:56.820Z,26.5
2023-05-10T08:15:57.087Z,26.5
2023-05-10T08:16:58.330Z,26
2023-05-10T08:17:59.472Z,26
2023-05-10T08:19:00.599Z,25.1429
2023-05-10T08:20:02.240Z,24.6429
2023-05-10T08:21:02.167Z,24.8571
2023-05-10T08:22:04.210Z,25.4286
2023-05-10T08:23:05.045Z,26.4286
2023-05-10T08:24:06.097Z,26.7143
2023-05-10T08:25:06.997Z,26.4286
2023-05-10T08:26:08.312Z,26.8571
2023-05-10T08:27:09.712Z,27.3571
2023-05-10T08:28:11.928Z,27.4286
2023-05-10T08:29:10.636Z,27.5
2023-05-10T08:30:13.019Z,27.2857
2023-05-10T08:31:13.814Z,27.5714
2023-05-10T08:32:15.159Z,27.7143
2023-05-10T08:33:16.552Z,27.8571
2023-05-10T08:34:17.400Z,27.4286
2023-05-10T08:35:19.030Z,28.1429
2023-05-10T08:36:20.741Z,29.5714
2023-05-10T08:37:20.894Z,28.4286
2023-05-10T08:38:21.725Z,28.6429
2023-05-10T08:39:30.261Z,28.3571
2023-05-10T08:40:24.304Z,28
2023-05-10T08:41:25.730Z,27.9286
2023-05-10T08:42:26.636Z,27.4286
2023-05-10T08:43:27.848Z,26.9286
2023-05-10T08:44:28.354Z,25.7143
2023-05-10T08:45:29.791Z,25.8571
2023-05-10T08:46:31.969Z,26.2857
2023-05-10T08:47:33.133Z,26.1429
2023-05-10T08:48:34.218Z,26.2143
2023-05-10T08:49:36.098Z,26.2143
2023-05-10T08:50:38.171Z,27.0714
2023-05-10T08:51:39.722Z,27.6429
2023-05-10T08:52:39.754Z,27.5
2023-05-10T08:53:41.383Z,27.8571
2023-05-10T08:54:43.785Z,28.7857
2023-05-10T08:55:45.644Z,29.4286
2023-05-10T08:56:46.896Z,29.4286
2023-05-10T08:57:46.564Z,30.6429
2023-05-10T08:58:46.163Z,30.6429
2023-05-10T08:59:47.144Z,31.2857
2023-05-10T09:00:47.794Z,31
2023-05-10T09:01:48.659Z,31.1429
2023-05-10T09:02:48.831Z,31.9286
2023-05-10T09:03:51.002Z,30.9286
2023-05-10T09:04:52.496Z,31.1429
2023-05-10T09:05:52.564Z,31.4286
2023-05-10T09:06:53.652Z,32.6429
2023-05-10T09:07:54.521Z,32.6429
2023-05-10T09:08:55.103Z,32.5714
2023-05-10T09:09:56.093Z,34.5
2023-05-10T09:10:56.808Z,34.7143
2023-05-10T09:11:57.604Z,33.9286
2023-05-10T09:12:59.332Z,33.2857
2023-05-10T09:13:58.997Z,34.5714
2023-05-10T09:14:59.215Z,34.9286
2023-05-10T09:16:04.426Z,35.8571
2023-05-10T09:17:00.608Z,35.6429
2023-05-10T09:18:01.061Z,34.7857
2023-05-10T09:19:02.410Z,35.0714
2023-05-10T09:20:04.489Z,35.4286
2023-05-10T09:21:06.858Z,36.7143
2023-05-10T09:22:08.265Z,36.5
2023-05-10T09:23:10.699Z,35.8571
2023-05-10T09:24:11.666Z,36
2023-05-10T09:25:11.937Z,36
2023-05-10T09:26:14.622Z,34.7143
2023-05-10T09:27:14.051Z,35.7143
2023-05-10T09:28:15.876Z,35.7143
2023-05-10T09:29:17.467Z,35.6429
2023-05-10T09:30:17.259Z,34.9286
2023-05-10T09:31:19.345Z,34.5714
2023-05-10T09:32:21.694Z,35.7143
2023-05-10T09:33:23.701Z,35.7857
2023-05-10T09:34:25.065Z,35.5714
2023-05-10T09:35:29.435Z,35.8571
2023-05-10T09:36:29.127Z,34.6429
2023-05-10T09:37:29.537Z,35.3571
2023-05-10T09:38:30.967Z,36
2023-05-10T09:39:32.736Z,35.7857
2023-05-10T09:40:33.431Z,36
2023-05-10T09:41:35.371Z,35.7143
2023-05-10T09:42:37.678Z,35.9286
2023-05-10T09:43:38.101Z,36.1429
2023-05-10T09:44:38.310Z,36.2143
2023-05-10T09:45:40.127Z,36
2023-05-10T09:46:41.315Z,36.2857
2023-05-10T09:47:43.412Z,37
2023-05-10T09:48:45.002Z,36.7143
2023-05-10T09:49:47.185Z,37.4286
2023-05-10T09:50:48.727Z,39.2857
2023-05-10T09:51:48.811Z,38.1429
2023-05-10T09:52:49.851Z,37
2023-05-10T09:53:53.045Z,37.1429
2023-05-10T09:54:54.711Z,37.5
2023-05-10T09:55:57.036Z,38.3571
2023-05-10T09:56:57.221Z,37.2857
2023-05-10T09:58:00.345Z,37.1429
2023-05-10T09:59:01.327Z,37.7857
2023-05-10T10:00:02.272Z,36.2143
2023-05-10T10:01:05.194Z,37.8571
2023-05-10T10:02:06.140Z,37.4286
2023-05-10T10:03:06.665Z,37.4286
2023-05-10T10:04:08.559Z,38.0714
2023-05-10T10:05:10.474Z,36.4286
2023-05-10T10:06:26.383Z,37.3571
2023-05-10T10:07:14.419Z,38
2023-05-10T10:08:16.912Z,38.3571
2023-05-10T10:09:18.663Z,37.2857
2023-05-10T10:10:19.339Z,37.8571
2023-05-10T10:11:20.709Z,37.7143
2023-05-10T10:12:20.689Z,37.0714
2023-05-10T10:13:22.078Z,37.7857
2023-05-10T10:14:23.776Z,38.2143
2023-05-10T10:15:24.648Z,37.5
2023-05-10T10:16:26.009Z,36.7857
2023-05-10T10:17:26.345Z,37.1429
2023-05-10T10:18:28.868Z,37.1429
2023-05-10T10:19:29.798Z,37.2857
2023-05-10T10:20:32.015Z,36.3571
2023-05-10T10:21:33.232Z,36.7143
2023-05-10T10:22:34.838Z,37.7143
2023-05-10T10:23:37.156Z,37.2857
2023-05-10T10:24:36.577Z,36.9286
2023-05-10T10:25:37.336Z,36.7857
2023-05-10T10:26:37.410Z,37.1429
2023-05-10T10:27:39.304Z,37.2143
2023-05-10T10:28:40.426Z,38.4286
2023-05-10T10:29:41.477Z,38.0714
2023-05-10T10:30:42.788Z,38.0714
2023-05-10T10:31:44.359Z,38.0714
2023-05-10T10:32:44.890Z,37.3571
2023-05-10T10:33:48.227Z,37.5
2023-05-10T10:34:48.408Z,36.6429
2023-05-10T10:35:50.317Z,37.0714
2023-05-10T10:36:49.909Z,37.2143
2023-05-10T10:37:52.380Z,37.3571
2023-05-10T10:38:53.544Z,35.9286
2023-05-10T10:39:56.045Z,36.2857
2023-05-10T10:40:57.900Z,37.2857
2023-05-10T10:41:58.441Z,37.7857
2023-05-10T10:43:01.034Z,38.1429
2023-05-10T10:44:01.704Z,37.9286
2023-05-10T10:45:03.117Z,36.9286
2023-05-10T10:46:06.251Z,36.3571
2023-05-10T10:47:07.637Z,37.0714
2023-05-10T10:48:07.794Z,37.4286
2023-05-10T10:49:08.526Z,38.6429
2023-05-10T10:50:10.269Z,36.5
2023-05-10T10:51:13.022Z,36.3571
2023-05-10T10:52:12.540Z,36
2023-05-10T10:53:13.897Z,37.0714
2023-05-10T10:54:15.384Z,35.9286
2023-05-10T10:55:16.988Z,37.0714
2023-05-10T10:56:16.812Z,35.6429
2023-05-10T10:57:19.147Z,35.5
2023-05-10T10:58:20.639Z,35.4286
2023-05-10T10:59:22.684Z,37
2023-05-10T11:00:23.102Z,36.7143
2023-05-10T11:01:24.910Z,36.7857
2023-05-10T11:02:25.298Z,38.2143
2023-05-10T11:03:25.897Z,37.5714
2023-05-10T11:04:27.590Z,37.8571
2023-05-10T11:05:27.748Z,37.7143
2023-05-10T11:06:28.874Z,38.2143
2023-05-10T11:07:04.080Z,37
2023-05-10T11:08:03.364Z,37.5714
2023-05-10T11:09:03.362Z,36
2023-05-10T11:10:03.371Z,35.2143
2023-05-10T11:11:03.387Z,35.2857
2023-05-10T11:12:03.379Z,36.1429
2023-05-10T11:13:03.409Z,36.5
2023-05-10T11:14:03.393Z,38.0714
2023-05-10T11:15:03.396Z,38
2023-05-10T11:16:03.424Z,37.4286
2023-05-10T11:17:03.463Z,36.7143
2023-05-10T11:18:03.445Z,37.2857
2023-05-10T11:19:03.640Z,36
2023-05-10T11:20:03.436Z,34.3571
2023-05-10T11:21:03.440Z,36.0714
2023-05-10T11:22:03.444Z,36.7143
2023-05-10T11:23:03.452Z,35.9286
2023-05-10T11:24:03.461Z,35.5714
2023-05-10T11:25:03.465Z,34.5
2023-05-10T11:26:03.488Z,34.1429
2023-05-10T11:27:03.494Z,35
2023-05-10T11:28:03.500Z,35.6429
2023-05-10T11:29:03.518Z,37.0714
2023-05-10T11:30:04.942Z,37.3571
2023-05-10T11:31:03.591Z,36.4286
2023-05-10T11:32:03.546Z,36.2857
2023-05-10T11:33:03.571Z,35.7143
2023-05-10T11:34:03.546Z,34.8571
2023-05-10T11:35:03.564Z,34.7857
2023-05-10T11:36:03.625Z,36.9286
2023-05-10T11:37:03.594Z,35.5714
2023-05-10T11:38:03.607Z,36.0714
2023-05-10T11:39:03.603Z,35.4286
2023-05-10T11:40:03.609Z,35.9286
2023-05-10T11:41:03.643Z,35.3571
2023-05-10T11:42:03.657Z,34.8571
2023-05-10T11:43:03.644Z,36.6429
2023-05-10T11:44:03.644Z,35.2857
2023-05-10T11:45:03.662Z,37.6429
2023-05-10T11:46:03.713Z,37.2143
2023-05-10T11:47:03.704Z,37.7857
2023-05-10T11:48:03.759Z,36.6429
2023-05-10T11:49:03.702Z,36.2857
2023-05-10T11:50:03.697Z,34.7857
2023-05-10T11:51:03.707Z,35.7143
2023-05-10T11:52:03.809Z,36.5
2023-05-10T11:53:03.710Z,36
2023-05-10T11:54:03.741Z,36
2023-05-10T11:55:03.749Z,34.5714
2023-05-10T11:56:03.734Z,33.2143
2023-05-10T11:57:03.779Z,33.7143
2023-05-10T11:58:03.775Z,32.6429
2023-05-10T11:59:03.756Z,32.8571
2023-05-10T12:00:03.765Z,34.5714
2023-05-10T12:01:03.786Z,34
2023-05-10T12:02:03.802Z,36.5714
2023-05-10T12:03:03.959Z,35.7857
2023-05-10T12:04:03.963Z,36
2023-05-10T12:05:03.860Z,36
2023-05-10T12:06:03.820Z,35.7143
2023-05-10T12:07:03.836Z,35
2023-05-10T12:08:03.831Z,34.3571
2023-05-10T12:09:03.852Z,35.6429
2023-05-10T12:10:03.855Z,33.7857
2023-05-10T12:11:03.863Z,34.3571
2023-05-10T12:12:03.878Z,33.7857
2023-05-10T12:13:03.883Z,34.2143
2023-05-10T12:14:03.888Z,32.1429
2023-05-10T12:15:03.895Z,32.7143
2023-05-10T12:16:03.949Z,33.8571
2023-05-10T12:17:03.946Z,34
2023-05-10T12:18:03.930Z,34.8571
2023-05-10T12:19:04.046Z,36.6429
2023-05-10T12:20:03.952Z,35.6429
2023-05-10T12:21:03.956Z,33.7857
2023-05-10T12:22:03.990Z,34.3571
2023-05-10T12:23:03.965Z,35.6429
2023-05-10T12:24:04.077Z,35.0714
2023-05-10T12:25:03.986Z,34.5
2023-05-10T12:26:04.005Z,34.3571
2023-05-10T12:27:04.046Z,34.4286
2023-05-10T12:28:04.053Z,33
2023-05-10T12:29:04.043Z,34.4286
2023-05-10T12:30:04.058Z,33.7143
2023-05-10T12:31:04.064Z,32.2857
2023-05-10T12:32:04.144Z,33.5
2023-05-10T12:33:04.125Z,31.9286